Time;durP1;ratioP1;P1;durP2;ratioP2;P2;SDS_P1;SDS_P2;PMS_P1;PMS_P2;Temp;Humidity;BMP_temperature;BMP_pressure;BME280_temperature;BME280_humidity;BME280_pressure;Samples;Min_cycle;Max_cycle;Signal;HPM_P1;HPM_P2
2021/07/29 00:01:39;;;;;;;12.53;10.55;;;;;;;23.57;63.61;98927.42;1735492;80;21017;-41
2021/07/29 00:04:06;;;;;;;14.73;10.90;;;;;;;23.58;63.62;98928.16;1726603;83;21598;-41
2021/07/29 00:06:33;;;;;;;12.03;10.78;;;;;;;23.51;63.88;98922.33;1735344;80;21073;-41
2021/07/29 00:09:00;;;;;;;15.65;11.00;;;;;;;23.46;63.82;98933.99;1737581;80;21000;-41
2021/07/29 00:11:28;;;;;;;15.10;11.22;;;;;;;23.44;63.66;98935.63;1730852;80;21053;-41
2021/07/29 00:13:57;;;;;;;15.00;11.68;;;;;;;23.42;63.62;98931.96;1726552;83;21503;-41
2021/07/29 00:16:23;;;;;;;16.50;11.85;;;;;;;23.38;63.68;98933.46;1732388;80;21099;-41
2021/07/29 00:19:04;;;;;;;14.55;11.12;;;;;;;23.36;63.77;98941.46;1726428;83;20965;-41
2021/07/29 00:21:32;;;;;;;16.25;13.25;;;;;;;23.37;63.98;98951.31;1726588;83;20985;-41
2021/07/29 00:23:59;;;;;;;17.95;15.13;;;;;;;23.35;63.89;98953.75;1731482;80;21483;-41
2021/07/29 00:26:28;;;;;;;17.57;14.35;;;;;;;23.24;64.02;98952.61;1769975;80;21040;-41
2021/07/29 00:28:55;;;;;;;17.02;14.78;;;;;;;23.12;64.23;98960.41;1756524;81;21114;-41
2021/07/29 00:31:34;;;;;;;15.88;14.07;;;;;;;23.01;64.36;98960.81;1750022;80;21546;-41
2021/07/29 00:34:01;;;;;;;16.52;14.75;;;;;;;22.89;64.47;98963.83;1745517;80;21084;-41
2021/07/29 00:36:28;;;;;;;14.95;13.43;;;;;;;22.80;64.74;98959.61;1721880;80;21516;-41
2021/07/29 00:38:56;;;;;;;19.87;14.53;;;;;;;22.78;65.11;98970.36;1718824;83;20922;-41
2021/07/29 00:41:23;;;;;;;28.32;15.43;;;;;;;22.76;65.23;98967.27;1719898;80;21123;-41
2021/07/29 00:44:02;;;;;;;17.12;14.45;;;;;;;22.74;65.32;98971.11;1743915;80;21786;-41
2021/07/29 00:46:30;;;;;;;18.65;15.85;;;;;;;22.72;65.38;98973.54;1722914;80;21578;-41
2021/07/29 00:48:57;;;;;;;18.82;15.32;;;;;;;22.62;65.56;98975.27;1718793;83;20984;-41
2021/07/29 00:51:25;;;;;;;17.05;13.95;;;;;;;22.52;65.77;98981.34;1720013;80;21077;-41
2021/07/29 00:53:52;;;;;;;20.10;14.87;;;;;;;22.42;66.18;98965.91;1720152;80;21061;-41
2021/07/29 00:56:19;;;;;;;24.18;16.50;;;;;;;22.45;66.40;98974.09;1738595;80;21454;-41
2021/07/29 00:58:46;;;;;;;17.80;14.60;;;;;;;22.46;66.57;98974.87;1718924;83;21036;-41
2021/07/29 01:01:13;;;;;;;23.77;16.10;;;;;;;22.43;66.53;98979.28;1743851;80;21053;-41
2021/07/29 01:03:39;;;;;;;21.15;15.45;;;;;;;22.38;66.53;98977.70;1739361;80;21056;-41
2021/07/29 01:06:08;;;;;;;17.27;14.25;;;;;;;22.32;66.77;98979.48;1748679;82;21126;-41
2021/07/29 01:09:03;;;;;;;22.10;14.25;;;;;;;22.34;67.04;98983.36;1748110;80;21000;-41
2021/07/29 01:11:31;;;;;;;17.85;14.20;;;;;;;22.44;66.74;98984.98;1748751;82;20938;-41
2021/07/29 01:13:59;;;;;;;18.07;14.38;;;;;;;22.49;66.48;98983.62;1748750;82;21037;-41
2021/07/29 01:16:25;;;;;;;15.85;13.83;;;;;;;22.48;66.18;98980.09;1742715;80;21009;-41
2021/07/29 01:18:52;;;;;;;16.17;13.85;;;;;;;22.43;66.10;98977.13;1748162;80;21149;-41
2021/07/29 01:21:19;;;;;;;16.82;13.75;;;;;;;22.38;66.09;98976.32;1748617;82;21574;-41
2021/07/29 01:23:46;;;;;;;15.23;12.58;;;;;;;22.28;66.21;98974.09;1748101;80;20993;-41
2021/07/29 01:26:13;;;;;;;15.35;11.88;;;;;;;22.23;66.34;98968.36;1724263;80;21040;-41
2021/07/29 01:28:41;;;;;;;15.63;11.43;;;;;;;22.28;66.33;98971.94;1729628;80;21084;-41
2021/07/29 01:31:07;;;;;;;16.17;11.45;;;;;;;22.34;66.08;98964.63;1721876;80;21145;-41
2021/07/29 01:33:35;;;;;;;13.38;11.35;;;;;;;22.39;65.94;98963.45;1726507;83;21316;-41
2021/07/29 01:36:01;;;;;;;14.55;11.83;;;;;;;22.44;65.81;98961.50;1696588;81;21005;-41
2021/07/29 01:38:28;;;;;;;15.50;10.98;;;;;;;22.50;65.97;98958.33;1758793;80;20978;-41
2021/07/29 01:40:55;;;;;;;12.28;10.93;;;;;;;22.58;66.02;98955.29;1739515;81;21030;-41
2021/07/29 01:45:52;;;;;;;15.10;11.20;;;;;;;22.82;65.86;98950.27;1765308;78;22829;-41
2021/07/29 01:48:19;;;;;;;14.60;11.15;;;;;;;22.78;65.77;98946.87;1728063;80;21008;-41
2021/07/29 01:50:46;;;;;;;14.00;11.18;;;;;;;22.88;65.82;98940.78;1726727;83;21149;-41
2021/07/29 01:53:13;;;;;;;14.00;10.75;;;;;;;22.93;65.70;98944.34;1727858;80;20965;-41
2021/07/29 01:55:43;;;;;;;15.05;10.58;;;;;;;22.96;65.53;98941.44;1737599;80;21459;-41
2021/07/29 01:58:10;;;;;;;12.98;10.35;;;;;;;23.02;65.35;98942.23;1747390;80;20933;-41
2021/07/29 02:00:41;;;;;;;16.57;10.95;;;;;;;23.08;65.00;98939.81;1728968;80;21550;-41
2021/07/29 02:03:08;;;;;;;14.35;10.63;;;;;;;23.11;64.63;98936.73;1747569;82;21111;-41
2021/07/29 02:05:34;;;;;;;11.57;10.10;;;;;;;23.14;64.75;98937.23;1755653;80;21796;-41
2021/07/29 02:08:01;;;;;;;12.88;10.25;;;;;;;23.15;64.71;98933.99;1755212;80;20973;-41
2021/07/29 02:10:28;;;;;;;12.30;10.50;;;;;;;23.16;64.71;98929.23;1729791;80;20906;-41
2021/07/29 02:12:55;;;;;;;14.00;10.48;;;;;;;23.14;64.38;98926.17;1726757;83;21308;-41
2021/07/29 02:15:23;;;;;;;11.85;9.63;;;;;;;23.12;64.39;98920.31;1759077;80;21121;-41
2021/07/29 02:17:49;;;;;;;12.98;9.68;;;;;;;23.12;64.53;98921.70;1758730;80;20985;-41
2021/07/29 02:20:16;;;;;;;12.00;9.90;;;;;;;23.15;64.53;98909.72;1756998;81;21052;-41
2021/07/29 02:22:42;;;;;;;13.43;9.78;;;;;;;23.17;64.49;98912.80;1744745;80;21546;-41
2021/07/29 02:25:12;;;;;;;14.87;10.78;;;;;;;23.18;64.43;98910.20;1744265;80;21012;-41
2021/07/29 02:27:38;;;;;;;11.95;10.15;;;;;;;23.18;64.35;98910.98;1726719;83;21830;-41
2021/07/29 02:30:06;;;;;;;13.95;10.10;;;;;;;23.16;64.25;98911.27;1729087;80;20940;-41
2021/07/29 02:32:33;;;;;;;12.03;10.18;;;;;;;23.13;64.29;98909.41;1732342;80;21530;-41
2021/07/29 02:35:00;;;;;;;12.73;10.08;;;;;;;23.13;64.20;98912.18;1727591;80;21041;-41
2021/07/29 02:37:26;;;;;;;13.45;10.08;;;;;;;23.13;64.08;98912.18;1726769;83;21087;-41
2021/07/29 02:39:53;;;;;;;13.60;10.63;;;;;;;23.14;64.38;98912.34;1758156;80;22271;-41
2021/07/29 02:42:20;;;;;;;12.10;10.25;;;;;;;23.14;64.42;98906.17;1754517;80;21096;-41
2021/07/29 02:44:47;;;;;;;12.95;10.95;;;;;;;23.13;64.34;98902.50;1751081;81;20965;-41
2021/07/29 02:47:14;;;;;;;13.00;10.80;;;;;;;23.13;64.19;98901.12;1714672;82;21053;-41
2021/07/29 02:49:40;;;;;;;12.15;10.75;;;;;;;23.13;63.93;98896.97;1763943;80;21048;-41
2021/07/29 02:52:10;;;;;;;11.60;9.73;;;;;;;23.12;63.73;98894.81;1745968;80;25931;-41
2021/07/29 02:54:36;;;;;;;13.40;10.60;;;;;;;23.12;63.65;98879.61;1732401;80;20910;-41
2021/07/29 02:57:05;;;;;;;13.75;10.28;;;;;;;23.12;63.71;98878.23;1742791;80;20974;-41
2021/07/29 02:59:33;;;;;;;16.55;11.05;;;;;;;23.12;63.75;98885.75;1736547;80;21035;-41
2021/07/29 03:01:59;;;;;;;12.35;10.48;;;;;;;23.09;63.79;98879.12;1748365;80;20982;-41
2021/07/29 03:04:26;;;;;;;12.82;10.85;;;;;;;23.09;63.82;98878.38;1734281;80;21188;-41
2021/07/29 03:06:54;;;;;;;15.88;11.97;;;;;;;23.07;63.83;98876.66;1713672;83;20961;-41
2021/07/29 03:09:21;;;;;;;17.90;11.90;;;;;;;23.06;64.07;98872.35;1719158;80;21085;-41
2021/07/29 03:11:47;;;;;;;15.38;11.18;;;;;;;23.02;64.23;98866.20;1738984;80;21475;-41
2021/07/29 03:14:16;;;;;;;14.78;11.57;;;;;;;23.04;64.37;98862.38;1754539;81;21085;-41
2021/07/29 03:16:44;;;;;;;13.58;11.40;;;;;;;23.09;64.29;98859.02;1733885;80;20997;-41
2021/07/29 03:19:12;;;;;;;14.18;11.95;;;;;;;23.10;64.30;98862.69;1733828;80;21100;-41
2021/07/29 03:21:39;;;;;;;14.05;12.65;;;;;;;23.12;64.61;98865.78;1730546;80;21527;-41
2021/07/29 03:24:06;;;;;;;12.68;11.28;;;;;;;23.13;64.83;98866.55;1742563;80;21028;-41
2021/07/29 03:26:34;;;;;;;12.05;10.63;;;;;;;23.15;64.78;98866.84;1720403;80;21104;-41
2021/07/29 03:29:00;;;;;;;12.80;11.22;;;;;;;23.20;64.68;98871.17;1729165;80;21796;-41
2021/07/29 03:31:27;;;;;;;13.08;10.98;;;;;;;23.29;64.41;98871.81;1718233;80;20982;-41
2021/07/29 03:33:54;;;;;;;13.03;11.10;;;;;;;23.35;64.15;98874.14;1719251;80;21625;-41
2021/07/29 03:36:20;;;;;;;14.13;11.73;;;;;;;23.43;64.10;98882.30;1719497;80;21681;-41
2021/07/29 03:38:47;;;;;;;12.73;11.12;;;;;;;23.46;64.16;98889.73;1757646;80;21040;-41
2021/07/29 03:41:13;;;;;;;11.70;10.40;;;;;;;23.50;64.44;98888.19;1760703;80;21159;-41
2021/07/29 03:43:40;;;;;;;13.28;11.05;;;;;;;23.51;64.57;98880.83;1754710;81;20918;-41
2021/07/29 03:46:07;;;;;;;17.62;11.45;;;;;;;23.60;64.28;98873.15;1763878;80;21043;-41
2021/07/29 03:48:34;;;;;;;14.40;11.57;;;;;;;23.67;64.03;98881.91;1740610;80;21046;-41
2021/07/29 03:51:01;;;;;;;23.70;12.40;;;;;;;23.74;63.94;98876.70;1713544;83;21534;-41
2021/07/29 03:53:27;;;;;;;32.90;13.62;;;;;;;23.78;64.28;98880.85;1721297;80;21587;-41
2021/07/29 03:55:54;;;;;;;21.02;12.70;;;;;;;23.82;63.82;98875.93;1730123;82;21523;-41
2021/07/29 03:58:20;;;;;;;12.98;10.70;;;;;;;23.89;63.50;98874.09;1766607;81;21514;-41
2021/07/29 04:00:47;;;;;;;11.30;10.10;;;;;;;23.90;63.76;98870.10;1745874;80;21052;-41
2021/07/29 04:03:15;;;;;;;13.03;10.65;;;;;;;23.96;64.17;98876.58;1745627;80;21332;-41
2021/07/29 04:05:42;;;;;;;12.58;10.85;;;;;;;24.06;64.21;98876.73;1731949;80;21123;-41
2021/07/29 04:08:09;;;;;;;12.85;10.28;;;;;;;24.15;64.17;98878.88;1735890;80;21057;-41
2021/07/29 04:10:36;;;;;;;11.97;10.30;;;;;;;24.23;63.96;98877.97;1740962;80;22039;-41
2021/07/29 04:13:03;;;;;;;12.60;9.85;;;;;;;24.32;63.89;98882.11;1738133;80;21008;-41
2021/07/29 04:15:30;;;;;;;13.55;10.32;;;;;;;24.39;63.98;98880.41;1726930;80;22042;-41
2021/07/29 04:17:56;;;;;;;13.32;10.50;;;;;;;24.45;63.99;98876.38;1733315;80;21150;-41
2021/07/29 04:20:23;;;;;;;14.18;9.85;;;;;;;24.52;64.03;98871.30;1747586;81;20997;-41
2021/07/29 04:22:50;;;;;;;11.50;9.70;;;;;;;24.63;63.95;98871.59;1741126;82;20962;-41
2021/07/29 04:25:17;;;;;;;12.70;10.10;;;;;;;24.76;64.30;98876.16;1742940;82;21067;-41
2021/07/29 04:27:43;;;;;;;12.18;10.03;;;;;;;24.84;64.36;98876.74;1742546;82;21607;-41
2021/07/29 04:30:12;;;;;;;11.90;10.72;;;;;;;24.94;64.30;98876.12;1738950;81;21089;-41
2021/07/29 04:32:38;;;;;;;21.33;14.90;;;;;;;25.01;64.00;98868.86;1742664;82;20962;-41
2021/07/29 04:35:07;;;;;;;13.80;11.20;;;;;;;25.09;63.37;98872.83;1742521;82;21009;-41
2021/07/29 04:37:33;;;;;;;11.78;10.40;;;;;;;25.18;63.00;98876.17;1742756;82;21040;-41
2021/07/29 04:40:01;;;;;;;12.45;10.45;;;;;;;25.27;63.22;98871.98;1742885;82;21055;-41
2021/07/29 04:42:27;;;;;;;13.15;10.48;;;;;;;25.41;63.47;98870.67;1740171;82;21129;-41
2021/07/29 04:44:54;;;;;;;13.30;10.60;;;;;;;25.53;62.65;98876.59;1743449;81;21373;-41
2021/07/29 04:47:21;;;;;;;11.50;10.30;;;;;;;25.61;62.27;98876.28;1743785;80;20984;-41
2021/07/29 04:49:47;;;;;;;11.65;10.45;;;;;;;25.67;62.09;98867.43;1721217;83;21028;-41
2021/07/29 04:52:14;;;;;;;11.15;9.18;;;;;;;25.73;61.86;98872.48;1745008;82;21057;-41
2021/07/29 04:54:40;;;;;;;13.32;9.93;;;;;;;25.79;61.46;98869.20;1751273;82;21843;-41
2021/07/29 04:57:07;;;;;;;12.15;9.43;;;;;;;25.84;61.38;98865.16;1751045;82;21061;-41
2021/07/29 04:59:36;;;;;;;12.33;9.65;;;;;;;25.89;60.89;98860.34;1748706;82;20965;-41
2021/07/29 05:02:03;;;;;;;12.00;9.50;;;;;;;25.95;61.57;98859.03;1743052;82;20965;-41
2021/07/29 05:04:30;;;;;;;11.28;9.70;;;;;;;25.95;61.57;98859.03;1736612;82;21992;-41
2021/07/29 05:06:58;;;;;;;13.00;9.65;;;;;;;26.02;61.08;98859.30;1750999;80;21129;-41
2021/07/29 05:09:25;;;;;;;10.30;9.05;;;;;;;26.06;60.81;98862.03;1751933;80;21531;-41
2021/07/29 05:11:52;;;;;;;13.28;9.20;;;;;;;26.13;61.05;98851.95;1746454;80;21050;-41
2021/07/29 05:14:18;;;;;;;14.83;9.48;;;;;;;26.20;61.30;98850.17;1707970;82;21043;-41
2021/07/29 05:16:45;;;;;;;12.33;9.53;;;;;;;26.26;60.99;98853.09;1703878;82;21590;-41
2021/07/29 05:19:12;;;;;;;11.45;10.25;;;;;;;26.34;60.97;98856.39;1743128;81;21818;-41
2021/07/29 05:21:40;;;;;;;11.40;9.48;;;;;;;26.44;61.41;98853.52;1743932;82;20957;-41
2021/07/29 05:24:07;;;;;;;10.45;9.43;;;;;;;26.53;61.41;98856.97;1741829;81;21063;-41
2021/07/29 05:26:34;;;;;;;10.43;8.83;;;;;;;26.64;61.00;98855.00;1744240;81;21037;-41
2021/07/29 05:29:01;;;;;;;10.35;9.03;;;;;;;26.72;60.67;98857.56;1744739;82;21033;-41
2021/07/29 05:31:27;;;;;;;15.70;12.45;;;;;;;26.79;60.03;98868.28;1736721;81;21078;-41
2021/07/29 05:33:55;;;;;;;17.90;13.88;;;;;;;26.79;60.10;98860.70;1745122;81;21012;-41
2021/07/29 05:36:22;;;;;;;15.05;13.48;;;;;;;26.74;59.46;98850.25;1742690;82;21772;-41
2021/07/29 05:38:49;;;;;;;17.07;13.55;;;;;;;26.69;59.57;98848.77;1744756;82;21060;-41
2021/07/29 05:41:15;;;;;;;15.65;14.07;;;;;;;26.64;59.79;98860.56;1743800;82;21068;-41
2021/07/29 05:43:42;;;;;;;17.35;15.60;;;;;;;26.55;60.52;98849.55;1735977;82;21131;-41
2021/07/29 05:46:10;;;;;;;20.75;14.98;;;;;;;26.46;60.50;98851.04;1696723;84;20979;-41
2021/07/29 05:48:38;;;;;;;16.10;14.40;;;;;;;26.40;60.10;98850.94;1682119;84;21050;-41
2021/07/29 05:51:05;;;;;;;18.27;16.17;;;;;;;26.36;60.09;98852.52;1725214;81;21044;-41
2021/07/29 05:53:32;;;;;;;19.65;17.80;;;;;;;26.32;60.03;98849.17;1727829;81;21985;-41
2021/07/29 05:55:59;;;;;;;23.80;21.35;;;;;;;26.25;60.29;98846.77;1710269;82;21094;-41
2021/07/29 05:58:26;;;;;;;27.00;24.23;;;;;;;26.23;60.72;98842.31;1737038;81;21068;-40
2021/07/29 06:00:53;;;;;;;27.55;24.85;;;;;;;26.21;61.46;98840.63;1730862;82;21033;-40
2021/07/29 06:03:20;;;;;;;24.47;22.00;;;;;;;26.17;61.30;98840.02;1736309;82;21535;-40
2021/07/29 06:05:46;;;;;;;21.87;19.52;;;;;;;26.15;61.48;98840.34;1719811;82;21036;-40
2021/07/29 06:08:13;;;;;;;18.85;16.97;;;;;;;26.16;61.72;98845.43;1739757;81;21134;-40
2021/07/29 06:10:40;;;;;;;19.12;17.10;;;;;;;26.17;61.61;98845.58;1736750;82;21522;-40
2021/07/29 06:13:07;;;;;;;19.98;17.85;;;;;;;26.22;60.91;98848.34;1734411;82;21072;-40
2021/07/29 06:15:33;;;;;;;19.12;17.12;;;;;;;26.24;61.07;98853.55;1732748;82;21369;-40
2021/07/29 06:18:01;;;;;;;19.65;17.60;;;;;;;26.29;61.07;98847.95;1735813;82;21017;-40
2021/07/29 06:20:29;;;;;;;21.93;18.17;;;;;;;26.36;60.91;98849.74;1736482;82;21108;-40
2021/07/29 06:22:55;;;;;;;20.20;17.82;;;;;;;26.46;60.39;98852.43;1733159;81;21012;-40
2021/07/29 06:25:22;;;;;;;19.90;17.80;;;;;;;26.50;60.23;98848.83;1732185;82;21027;-40
2021/07/29 06:27:49;;;;;;;20.75;18.67;;;;;;;26.58;59.98;98849.97;1736823;82;21002;-40
2021/07/29 06:30:16;;;;;;;19.55;17.52;;;;;;;26.62;60.30;98850.56;1736377;82;21072;-40
2021/07/29 06:32:44;;;;;;;22.07;18.95;;;;;;;26.67;60.54;98845.09;1737047;82;21955;-40
2021/07/29 06:35:12;;;;;;;21.00;18.90;;;;;;;26.78;60.14;98847.27;1735688;82;20997;-40
2021/07/29 06:37:39;;;;;;;21.62;19.42;;;;;;;26.84;59.64;98846.73;1735486;82;21072;-40
2021/07/29 06:40:08;;;;;;;20.77;18.55;;;;;;;26.90;59.61;98846.86;1731556;81;21638;-40
2021/07/29 06:42:34;;;;;;;20.88;18.70;;;;;;;27.03;59.99;98843.90;1733750;82;21063;-40
2021/07/29 06:45:01;;;;;;;19.05;17.15;;;;;;;27.20;60.02;98844.92;1732299;82;21087;-40
2021/07/29 06:47:29;;;;;;;17.87;16.05;;;;;;;27.35;59.04;98843.48;1740879;81;21553;-40
2021/07/29 06:49:56;;;;;;;18.25;16.35;;;;;;;27.45;58.16;98847.64;1754983;81;20934;-40
2021/07/29 06:52:23;;;;;;;18.30;16.52;;;;;;;27.54;57.99;98839.83;1755733;81;21069;-40
2021/07/29 06:54:49;;;;;;;16.80;15.10;;;;;;;27.63;58.23;98848.05;1755222;81;21518;-40
2021/07/29 06:57:16;;;;;;;15.30;13.70;;;;;;;27.74;58.28;98855.13;1736801;81;21114;-40
2021/07/29 06:59:42;;;;;;;13.62;10.82;;;;;;;27.83;56.79;98861.20;1747635;81;20952;-40
2021/07/29 07:02:10;;;;;;;13.15;11.40;;;;;;;27.87;56.00;98865.30;1750350;81;21071;-40
2021/07/29 07:04:37;;;;;;;10.95;9.95;;;;;;;27.92;55.59;98860.42;1750521;81;21509;-40
2021/07/29 07:07:04;;;;;;;11.50;10.25;;;;;;;27.97;55.36;98863.91;1750052;81;21467;-40
2021/07/29 07:09:30;;;;;;;12.58;10.50;;;;;;;28.01;54.83;98860.27;1741489;81;21134;-40
2021/07/29 07:11:57;;;;;;;12.55;11.03;;;;;;;28.01;54.88;98858.88;1744891;81;21521;-40
2021/07/29 07:14:24;;;;;;;11.65;10.45;;;;;;;28.04;54.78;98854.33;1735840;81;21120;-40
2021/07/29 07:16:51;;;;;;;11.63;10.32;;;;;;;28.10;55.47;98848.96;1750468;82;20954;-40
2021/07/29 07:19:17;;;;;;;13.45;10.08;;;;;;;28.18;54.83;98848.55;1750195;81;21045;-40
2021/07/29 07:21:44;;;;;;;13.35;9.70;;;;;;;28.22;54.78;98841.52;1750556;82;21197;-40
2021/07/29 07:24:11;;;;;;;11.85;10.03;;;;;;;28.26;55.08;98851.05;1750313;81;21004;-40
2021/07/29 07:26:37;;;;;;;15.05;10.55;;;;;;;28.30;55.48;98848.18;1749583;81;20972;-40
2021/07/29 07:29:05;;;;;;;10.90;9.15;;;;;;;28.42;55.32;98846.24;1749795;81;21455;-40
2021/07/29 07:31:33;;;;;;;10.20;9.10;;;;;;;28.55;53.38;98843.08;1744965;81;21064;-40
2021/07/29 07:34:00;;;;;;;10.38;8.03;;;;;;;28.68;52.58;98836.47;1749866;81;21100;-40
2021/07/29 07:36:27;;;;;;;10.53;8.08;;;;;;;28.79;52.08;98836.59;1750668;82;21008;-40
2021/07/29 07:38:54;;;;;;;11.15;8.33;;;;;;;28.87;50.76;98830.05;1747298;81;21510;-40
2021/07/29 07:41:21;;;;;;;9.95;7.90;;;;;;;28.97;50.77;98832.64;1750392;82;21013;-40
2021/07/29 07:43:49;;;;;;;9.48;8.08;;;;;;;29.11;51.34;98831.72;1747580;81;20975;-40
2021/07/29 07:46:16;;;;;;;10.55;8.55;;;;;;;29.29;50.99;98834.10;1748971;81;21136;-40
2021/07/29 07:48:42;;;;;;;9.48;8.10;;;;;;;29.48;51.03;98829.69;1733635;81;21060;-40
2021/07/29 07:51:09;;;;;;;10.10;8.18;;;;;;;29.67;50.70;98837.00;1726422;82;21023;-40
2021/07/29 07:53:36;;;;;;;9.93;7.55;;;;;;;29.80;49.07;98828.28;1734488;82;21013;-40
2021/07/29 07:56:05;;;;;;;12.60;8.60;;;;;;;29.90;49.05;98828.84;1736907;82;21029;-40
2021/07/29 07:58:32;;;;;;;10.35;8.23;;;;;;;29.94;48.27;98824.41;1735857;82;21110;-40
2021/07/29 08:01:04;;;;;;;11.70;8.30;;;;;;;29.93;49.22;98822.87;1735294;82;20954;-40
2021/07/29 08:03:30;;;;;;;10.45;8.55;;;;;;;29.90;49.12;98819.06;1724964;82;21602;-40
2021/07/29 08:06:04;;;;;;;14.07;8.48;;;;;;;29.88;49.05;98819.39;1730782;82;20929;-40
2021/07/29 08:08:31;;;;;;;11.40;8.33;;;;;;;29.89;48.73;98822.35;1729602;82;21088;-40
2021/07/29 08:10:58;;;;;;;11.68;8.28;;;;;;;29.90;49.16;98812.71;1717435;82;21152;-40
2021/07/29 08:13:25;;;;;;;11.15;8.65;;;;;;;29.92;48.51;98815.77;1723496;82;20985;-40
2021/07/29 08:15:52;;;;;;;12.15;7.70;;;;;;;29.99;48.96;98823.66;1711904;82;21069;-40
2021/07/29 08:18:20;;;;;;;10.38;8.18;;;;;;;30.04;48.22;98824.30;1709845;82;20973;-40
2021/07/29 08:20:49;;;;;;;11.53;8.23;;;;;;;30.04;47.88;98817.31;1708640;82;21567;-40
2021/07/29 08:23:15;;;;;;;13.68;8.68;;;;;;;29.98;47.77;98822.12;1721844;82;21121;-40
2021/07/29 08:25:42;;;;;;;11.35;7.70;;;;;;;29.95;47.97;98835.72;1729655;82;20938;-40
2021/07/29 08:28:10;;;;;;;10.72;7.80;;;;;;;29.85;47.62;98832.98;1728156;82;21101;-40
2021/07/29 08:30:37;;;;;;;12.20;7.40;;;;;;;29.77;48.67;98827.87;1720760;82;21124;-41
2021/07/29 08:33:09;;;;;;;8.85;6.87;;;;;;;29.77;49.93;98829.93;1710426;82;21040;-41
2021/07/29 08:35:38;;;;;;;13.03;7.62;;;;;;;29.79;48.80;98825.34;1731796;82;21384;-41
2021/07/29 08:38:05;;;;;;;14.18;7.40;;;;;;;29.82;49.74;98826.39;1727417;82;21029;-41
2021/07/29 08:40:33;;;;;;;12.50;8.10;;;;;;;29.80;49.11;98824.09;1704465;82;21016;-41
2021/07/29 08:43:02;;;;;;;11.75;7.08;;;;;;;29.73;49.26;98823.16;1708292;82;20954;-41
2021/07/29 08:45:29;;;;;;;12.40;8.50;;;;;;;29.69;49.23;98821.88;1704520;82;21077;-41
2021/07/29 08:47:56;;;;;;;11.83;7.97;;;;;;;29.67;48.70;98814.65;1738537;81;21128;-41
2021/07/29 08:50:23;;;;;;;15.15;7.45;;;;;;;29.66;49.00;98806.13;1742097;82;21008;-41
2021/07/29 08:52:50;;;;;;;12.25;7.10;;;;;;;29.70;49.35;98807.41;1742975;82;20921;-41
2021/07/29 08:55:18;;;;;;;10.38;6.70;;;;;;;29.72;48.85;98802.73;1733612;82;20977;-41
2021/07/29 08:57:45;;;;;;;8.80;7.08;;;;;;;29.80;49.53;98803.77;1742562;82;21073;-41
2021/07/29 09:00:13;;;;;;;14.45;7.25;;;;;;;29.93;49.54;98800.51;1713422;83;21140;-41
2021/07/29 09:02:40;;;;;;;11.38;7.17;;;;;;;30.05;48.45;98790.89;1716919;82;21088;-41
2021/07/29 09:05:21;;;;;;;10.72;6.40;;;;;;;30.21;48.80;98790.90;1739569;82;21004;-41
2021/07/29 09:08:04;;;;;;;11.65;7.12;;;;;;;30.37;48.28;98778.20;1740352;82;21496;-41
2021/07/29 09:10:32;;;;;;;13.35;7.05;;;;;;;30.52;47.28;98773.78;1742504;82;21057;-41
2021/07/29 09:13:12;;;;;;;12.10;6.62;;;;;;;30.62;47.72;98781.41;1729305;82;21806;-41
2021/07/29 09:15:39;;;;;;;12.18;6.90;;;;;;;30.76;46.88;98778.84;1719570;82;21023;-41
2021/07/29 09:18:07;;;;;;;11.15;6.37;;;;;;;30.87;46.25;98774.63;1700670;82;21052;-41
2021/07/29 09:20:35;;;;;;;12.13;6.03;;;;;;;30.98;46.90;98772.55;1713229;83;21001;-41
2021/07/29 09:23:14;;;;;;;10.00;5.80;;;;;;;31.14;44.23;98776.62;1713460;82;21056;-41
2021/07/29 09:25:43;;;;;;;10.50;5.95;;;;;;;31.20;43.72;98781.57;1737973;82;21079;-41
2021/07/29 09:28:12;;;;;;;13.30;5.90;;;;;;;31.26;44.26;98782.33;1735583;82;21028;-41
2021/07/29 09:30:39;;;;;;;13.00;5.20;;;;;;;31.32;43.00;98774.64;1713355;82;21013;-41
2021/07/29 09:33:17;;;;;;;11.43;5.87;;;;;;;31.31;41.17;98776.58;1724449;82;21108;-41
2021/07/29 09:35:48;;;;;;;11.22;5.10;;;;;;;31.32;41.78;98766.91;1713246;82;21479;-41
2021/07/29 09:38:24;;;;;;;10.90;5.30;;;;;;;31.40;42.34;98771.44;1726549;82;21102;-41
2021/07/29 09:41:00;;;;;;;11.80;4.95;;;;;;;31.52;41.79;98766.53;1732326;82;20976;-41
2021/07/29 09:43:33;;;;;;;8.48;4.65;;;;;;;31.63;42.22;98766.52;1711491;82;21048;-41
2021/07/29 09:46:17;;;;;;;10.35;4.95;;;;;;;31.74;41.20;98764.30;1721007;82;21017;-41
2021/07/29 09:48:44;;;;;;;8.28;4.70;;;;;;;31.80;41.18;98770.64;1729808;82;21041;-41
2021/07/29 09:51:12;;;;;;;11.48;5.08;;;;;;;31.83;41.10;98765.39;1742870;82;21102;-41
2021/07/29 09:53:39;;;;;;;10.35;4.92;;;;;;;31.85;40.69;98760.03;1736400;82;21072;-41
2021/07/29 09:56:10;;;;;;;7.53;4.60;;;;;;;31.86;40.31;98760.13;1742830;82;21037;-41
2021/07/29 09:58:37;;;;;;;10.05;4.30;;;;;;;31.85;40.20;98754.43;1723474;82;20972;-42
2021/07/29 10:01:04;;;;;;;10.15;4.92;;;;;;;31.86;40.66;98757.33;1713238;83;21064;-41
2021/07/29 10:03:31;;;;;;;8.10;4.62;;;;;;;31.84;40.15;98749.45;1724176;82;21147;-41
2021/07/29 10:06:13;;;;;;;10.13;4.92;;;;;;;31.83;41.72;98751.37;1741337;82;21202;-41
2021/07/29 10:08:54;;;;;;;11.35;4.90;;;;;;;31.86;41.14;98761.53;1678020;85;21008;-41
2021/07/29 10:11:23;;;;;;;10.50;4.78;;;;;;;31.86;41.25;98758.09;1742648;82;21053;-41
2021/07/29 10:13:51;;;;;;;9.80;4.80;;;;;;;31.89;41.43;98744.45;1715712;82;21053;-42
2021/07/29 10:16:39;;;;;;;8.10;4.95;;;;;;;31.93;41.65;98753.98;1716595;82;21507;-41
2021/07/29 10:19:06;;;;;;;10.80;4.80;;;;;;;31.98;41.63;98748.22;1723309;82;21638;-41
2021/07/29 10:21:36;;;;;;;9.05;4.80;;;;;;;31.99;40.63;98737.89;1717029;82;21009;-41
2021/07/29 10:24:05;;;;;;;12.45;4.85;;;;;;;32.01;40.66;98733.91;1723744;82;21115;-42
2021/07/29 10:26:35;;;;;;;9.47;5.00;;;;;;;32.13;40.97;98733.98;1735518;82;21096;-41
2021/07/29 10:29:29;;;;;;;9.28;5.10;;;;;;;32.34;40.62;98728.70;1740873;82;21855;-41
2021/07/29 10:31:59;;;;;;;12.05;5.05;;;;;;;32.54;40.38;98731.06;1732400;82;21291;-41
2021/07/29 10:34:31;;;;;;;8.90;4.65;;;;;;;32.66;38.12;98738.14;1712455;82;21549;-41
2021/07/29 10:37:05;;;;;;;10.75;4.72;;;;;;;32.72;37.25;98729.66;1705203;82;21088;-41
2021/07/29 10:39:32;;;;;;;9.33;4.60;;;;;;;32.82;37.96;98732.88;1713564;83;21040;-41
2021/07/29 10:42:00;;;;;;;7.03;4.50;;;;;;;32.97;37.36;98733.96;1731476;82;21114;-42
2021/07/29 10:44:39;;;;;;;8.03;4.53;;;;;;;33.05;36.63;98720.11;1738974;82;21009;-42
2021/07/29 10:47:07;;;;;;;10.30;4.95;;;;;;;33.12;37.70;98723.06;1744343;81;20993;-42
2021/07/29 10:50:04;;;;;;;11.18;4.62;;;;;;;33.21;36.50;98729.66;1744885;82;20997;-41
2021/07/29 10:52:31;;;;;;;8.98;5.00;;;;;;;33.33;36.96;98716.97;1748758;82;21036;-41
2021/07/29 10:54:58;;;;;;;9.33;4.10;;;;;;;33.51;36.30;98727.45;1722302;82;21786;-41
2021/07/29 10:57:25;;;;;;;9.60;4.53;;;;;;;33.61;36.57;98730.00;1718991;83;20981;-41
2021/07/29 10:59:52;;;;;;;11.63;4.65;;;;;;;33.68;35.41;98730.83;1719090;82;21014;-42
2021/07/29 11:02:45;;;;;;;8.05;4.42;;;;;;;33.65;35.71;98722.69;1719355;82;21025;-42
2021/07/29 11:05:10;;;;;;;9.53;4.60;;;;;;;33.75;36.14;98726.63;1722451;82;20998;-41
2021/07/29 11:07:41;;;;;;;8.83;4.37;;;;;;;33.90;35.99;98722.05;1722180;82;21341;-42
2021/07/29 11:10:10;;;;;;;10.50;4.58;;;;;;;34.08;35.50;98722.57;1725034;82;21531;-41
2021/07/29 11:12:39;;;;;;;9.80;4.20;;;;;;;34.23;35.29;98720.05;1719239;83;20961;-42
2021/07/29 11:15:08;;;;;;;10.72;4.60;;;;;;;34.45;34.55;98723.88;1722126;82;20953;-41
2021/07/29 11:17:35;;;;;;;12.80;4.80;;;;;;;34.56;33.75;98712.43;1749088;82;21452;-42
2021/07/29 11:20:02;;;;;;;14.45;4.67;;;;;;;34.63;34.72;98707.55;1723493;82;21066;-41
2021/07/29 11:22:28;;;;;;;11.10;4.60;;;;;;;34.73;34.27;98704.45;1723780;82;20993;-42
2021/07/29 11:25:08;;;;;;;7.03;4.30;;;;;;;34.83;34.56;98698.50;1728133;82;20968;-42
2021/07/29 11:27:35;;;;;;;8.30;4.53;;;;;;;35.04;32.95;98698.59;1728198;82;21075;-41
2021/07/29 11:30:03;;;;;;;8.73;4.37;;;;;;;35.12;33.47;98694.45;1747137;82;21559;-41